WetterOnline ( http://www.wetteronline.de )

Wetter aktuell Döttesfeld

Aktuelles Wetter: Andernach (75m)

6-stündlich | Neueste Meldungen
Ortszeit Temperatur Wetter
Fr, 20.04. 2:00 10.1° C wolkig
Do, 19.04. 20:00 24.8° C leicht bewölkt
Do, 19.04. 14:00 25.9° C wolkenlos
Do, 19.04. 8:00 9.9° C -
Mi, 18.04. 20:00 23.8° C wolkenlos
Mi, 18.04. 14:00 24.4° C wolkenlos
Mi, 18.04. 8:00 8.1° C wolkenlos
Mi, 18.04. 2:00 9.8° C wolkig
Ortszeit Temperatur Wetter
Fr, 20.04. 6:30 7.1° C leicht bewölkt
Fr, 20.04. 6:20 7.1° C wolkig
Fr, 20.04. 6:10 7.9° C wolkig
Fr, 20.04. 6:00 8.0° C leicht bewölkt
Fr, 20.04. 5:50 8.0° C leicht bewölkt
Fr, 20.04. 5:40 8.1° C fast wolkenlos
Fr, 20.04. 5:30 7.7° C leicht bewölkt
Fr, 20.04. 5:00 8.5° C leicht bewölkt
Fr, 20.04. 4:30 8.4° C leicht bewölkt
Fr, 20.04. 4:00 9.4° C leicht bewölkt
Fr, 20.04. 3:30 9.6° C wolkig
Ortszeit Relative Feuchte Sichtweite
Fr, 20.04. 2:00 88% 30 km
Do, 19.04. 20:00 31% 70 km
Do, 19.04. 14:00 36% 50 km
Do, 19.04. 8:00 86% 21 km
Mi, 18.04. 20:00 31% 70 km
Mi, 18.04. 14:00 35% 55 km
Mi, 18.04. 8:00 87% 30 km
Mi, 18.04. 2:00 83% 55 km
Ortszeit Relative Feuchte Sichtweite
Fr, 20.04. 6:30 94% 23 km
Fr, 20.04. 6:20 94% -
Fr, 20.04. 6:10 91% -
Fr, 20.04. 6:00 91% 28 km
Fr, 20.04. 5:50 91% -
Fr, 20.04. 5:40 91% -
Fr, 20.04. 5:30 93% 23 km
Fr, 20.04. 5:00 92% 28 km
Fr, 20.04. 4:30 92% 24 km
Fr, 20.04. 4:00 89% 30 km
Fr, 20.04. 3:30 89% 30 km
Ortszeit Niederschlagsmenge Niederschlagsart
Fr, 20.04. 2:00 0.0 l/m2 in 6 Std. -
Do, 19.04. 20:00 0.0 l/m2 in 12 Std. -
Do, 19.04. 14:00 0.0 l/m2 in 6 Std. -
Do, 19.04. 8:00 0.0 l/m2 in 12 Std. -
Mi, 18.04. 20:00 0.0 l/m2 in 12 Std. -
Mi, 18.04. 14:00 0.0 l/m2 in 6 Std. -
Mi, 18.04. 8:00 0.0 l/m2 in 12 Std. -
Mi, 18.04. 2:00 0.0 l/m2 in 6 Std. -
Ortszeit Niederschlagsmenge Niederschlagsart
Fr, 20.04. 6:30 0.0 l/m2 in 1 Std. -
Fr, 20.04. 6:20 keine Meldung -
Fr, 20.04. 6:10 keine Meldung -
Fr, 20.04. 6:00 0.0 l/m2 in 1 Std. -
Fr, 20.04. 5:50 keine Meldung -
Fr, 20.04. 5:40 keine Meldung -
Fr, 20.04. 5:30 0.0 l/m2 in 1 Std. -
Fr, 20.04. 5:00 0.0 l/m2 in 1 Std. -
Fr, 20.04. 4:30 0.0 l/m2 in 1 Std. -
Fr, 20.04. 4:00 0.0 l/m2 in 1 Std. -
Fr, 20.04. 3:30 0.0 l/m2 in 1 Std. -
Ortszeit Stärke Spitze Richtung
km/h Bft. km/h Grad Sektor
Fr, 20.04. 2:00 4 1 32 210° SW
Do, 19.04. 20:00 7 2 25 170° S
Do, 19.04. 14:00 13 3 20 90° O
Do, 19.04. 8:00 7 2 - 230° SW
Mi, 18.04. 20:00 7 2 25 130° SO
Mi, 18.04. 14:00 4 1 11 30° NO
Mi, 18.04. 8:00 4 1 11 190° S
Mi, 18.04. 2:00 7 2 14 210° SW
Ortszeit Stärke Spitze Richtung
km/h Bft. km/h Grad Sektor
Fr, 20.04. 6:30 4 1 7 200° S
Fr, 20.04. 6:20 4 1 - 200° S
Fr, 20.04. 6:10 4 1 - 190° S
Fr, 20.04. 6:00 7 2 7 200° S
Fr, 20.04. 5:50 7 2 - 200° S
Fr, 20.04. 5:40 6 1 - 200° S
Fr, 20.04. 5:30 6 1 6 210° SW
Fr, 20.04. 5:00 4 1 7 200° S
Fr, 20.04. 4:30 4 1 7 200° S
Fr, 20.04. 4:00 6 1 7 200° S
Fr, 20.04. 3:30 6 1 7 210° SW
Ortszeit Untergrenze Bedeckung Gattung
total tief tief mittel hoch
Fr, 20.04. 2:00 3600 m 7/8 1/8 - - -
Do, 19.04. 20:00 3600 m 2/8 - - - -
Do, 19.04. 14:00 - 0/8 0/8 - - -
Do, 19.04. 8:00 - - - - - -
Mi, 18.04. 20:00 - 0/8 0/8 - - -
Mi, 18.04. 14:00 - 0/8 0/8 - - -
Mi, 18.04. 8:00 - 0/8 0/8 - - -
Mi, 18.04. 2:00 10500 m 8/8 0/8 - - -
Ortszeit Bedeckungsgrad in Achtel und Wolkenuntergrenze
Fr, 20.04. 6:30 1(3000m) 6(10500m)
Fr, 20.04. 6:20 1(3000m) 2(3600m) 6(10500m)
Fr, 20.04. 6:10 2(3600m) 6(10500m)
Fr, 20.04. 6:00 2(3600m) 9 9
Fr, 20.04. 5:50 2(3600m)
Fr, 20.04. 5:40 1(3600m)
Fr, 20.04. 5:30 1(2400m)
Fr, 20.04. 5:00 1(3600m) 9 9
Fr, 20.04. 4:30 1(3600m)
Fr, 20.04. 4:00 1(3600m) 4(10500m) 3(12000m)
Fr, 20.04. 3:30 8(10500m) 7(12000m)
Ortszeit Luftdruck NN (hPa) Tendenz (hPa in 3 Std.)
Fr, 20.04. 2:00 1026 0,0
Do, 19.04. 20:00 1024 - 0,7
Do, 19.04. 14:00 1027 - 1,6
Do, 19.04. 8:00 1029 keine Meldung
Mi, 18.04. 20:00 1028 - 0,8
Mi, 18.04. 14:00 1030 - 1,3
Mi, 18.04. 8:00 1032 + 1,4
Mi, 18.04. 2:00 1030 + 1,6
Ortszeit Luftdruck NN (hPa) Tendenz (hPa in 3 Std.)
Fr, 20.04. 6:30 1025 - 0,3
Fr, 20.04. 6:20 1025 keine Meldung
Fr, 20.04. 6:10 1025 keine Meldung
Fr, 20.04. 6:00 1025 - 0,4
Fr, 20.04. 5:50 1025 keine Meldung
Fr, 20.04. 5:40 1025 keine Meldung
Fr, 20.04. 5:30 1025 - 0,3
Fr, 20.04. 5:00 1025 - 0,4
Fr, 20.04. 4:30 1025 - 0,2
Fr, 20.04. 4:00 1025 - 0,2
Fr, 20.04. 3:30 1025 - 0,2
Ortszeit Schneehöhe (cm)
Fr, 20.04. 2:00 0
Do, 19.04. 20:00 0
Do, 19.04. 14:00 0
Do, 19.04. 8:00 0
Mi, 18.04. 20:00 0
Mi, 18.04. 14:00 0
Mi, 18.04. 8:00 0
Mi, 18.04. 2:00 0
Ortszeit Schneehöhe (cm)
Fr, 20.04. 6:30 0
Fr, 20.04. 6:20 0
Fr, 20.04. 6:10 0
Fr, 20.04. 6:00 0
Fr, 20.04. 5:50 0
Fr, 20.04. 5:40 0
Fr, 20.04. 5:30 0
Fr, 20.04. 5:00 0
Fr, 20.04. 4:30 0
Fr, 20.04. 4:00 0
Fr, 20.04. 3:30 0
Link zu dieser Seite / Seite empfehlen

Das Wetter in ...